Time;durP1;ratioP1;P1;durP2;ratioP2;P2;SDS_P1;SDS_P2;PMS_P1;PMS_P2;Temp;Humidity;BMP_temperature;BMP_pressure;BME280_temperature;BME280_humidity;BME280_pressure;Samples;Min_cycle;Max_cycle;Signal;HPM_P1;HPM_P2
2022/05/16 00:00:10;;;;;;;10.05;7.45;;;12.50;99.90;;;;;;4959320;28;89851;-35
2022/05/16 00:02:35;;;;;;;12.00;7.00;;;12.50;99.90;;;;;;4958654;28;92557;-36
2022/05/16 00:05:01;;;;;;;9.25;6.95;;;12.50;99.90;;;;;;4959560;28;89018;-35
2022/05/16 00:07:27;;;;;;;9.13;6.25;;;12.50;99.90;;;;;;4959935;28;90305;-34
2022/05/16 00:09:52;;;;;;;10.95;6.88;;;12.50;99.90;;;;;;4959330;28;89077;-34
2022/05/16 00:12:18;;;;;;;9.88;7.35;;;12.40;99.90;;;;;;4962918;28;93371;-35
2022/05/16 00:14:44;;;;;;;11.45;7.55;;;12.40;99.90;;;;;;4962852;28;88927;-35
2022/05/16 00:17:12;;;;;;;9.82;7.45;;;12.40;99.90;;;;;;4962903;28;90125;-36
2022/05/16 00:19:39;;;;;;;10.63;6.78;;;12.30;99.90;;;;;;4962411;28;90591;-38
2022/05/16 00:22:06;;;;;;;11.43;8.63;;;12.30;99.90;;;;;;4962873;28;90219;-34
2022/05/16 00:24:32;;;;;;;8.43;6.95;;;12.30;99.90;;;;;;4962341;28;90122;-34
2022/05/16 00:27:01;;;;;;;11.93;7.40;;;12.30;99.90;;;;;;4944871;28;90261;-39
2022/05/16 00:29:27;;;;;;;11.75;7.82;;;12.30;99.90;;;;;;4962681;28;90871;-36
2022/05/16 00:31:54;;;;;;;9.93;6.85;;;12.30;99.90;;;;;;4961736;28;90807;-38
2022/05/16 00:34:20;;;;;;;12.55;8.45;;;12.30;99.90;;;;;;4962442;28;89068;-37
2022/05/16 00:36:49;;;;;;;16.63;7.75;;;12.20;99.90;;;;;;4962072;28;92123;-36
2022/05/16 00:39:20;;;;;;;10.68;7.20;;;12.20;99.90;;;;;;4962810;28;90467;-34
2022/05/16 00:41:47;;;;;;;9.15;7.63;;;12.20;99.90;;;;;;4962555;28;89423;-34
2022/05/16 00:44:13;;;;;;;9.73;7.15;;;12.20;99.90;;;;;;4994751;22;90278;-33
2022/05/16 00:46:39;;;;;;;10.73;6.57;;;12.20;99.90;;;;;;4942529;28;90273;-35
2022/05/16 00:49:09;;;;;;;8.23;6.97;;;12.20;99.90;;;;;;4942816;28;91153;-34
2022/05/16 00:51:41;;;;;;;11.52;7.13;;;12.20;99.90;;;;;;4942743;28;89589;-37
2022/05/16 00:54:19;;;;;;;8.77;6.22;;;12.20;99.90;;;;;;4942921;28;89640;-36
2022/05/16 00:56:47;;;;;;;16.27;7.30;;;12.10;99.90;;;;;;4942502;28;90337;-38
2022/05/16 00:59:12;;;;;;;9.23;6.28;;;12.10;99.90;;;;;;4943001;28;89261;-36
2022/05/16 01:07:09;;;;;;;12.25;7.68;;;12.00;99.90;;;;;;4942663;28;90409;-36
2022/05/16 01:09:35;;;;;;;10.45;7.47;;;12.00;99.90;;;;;;4942095;28;89285;-35
2022/05/16 01:12:01;;;;;;;8.88;6.32;;;12.00;99.90;;;;;;4942935;28;89487;-35
2022/05/16 01:14:45;;;;;;;9.90;6.65;;;12.00;99.90;;;;;;4942591;28;89498;-34
2022/05/16 01:17:11;;;;;;;10.88;6.03;;;11.90;99.90;;;;;;4942748;28;90376;-36
2022/05/16 01:19:37;;;;;;;13.40;6.97;;;11.90;99.90;;;;;;4941729;28;90686;-33
2022/05/16 01:22:29;;;;;;;10.13;7.47;;;11.90;99.90;;;;;;4940506;28;89417;-34
2022/05/16 01:24:59;;;;;;;18.17;7.18;;;11.80;99.90;;;;;;4942800;28;88098;-39
2022/05/16 01:27:25;;;;;;;8.35;6.75;;;11.80;99.90;;;;;;4942631;28;90123;-36
2022/05/16 01:29:51;;;;;;;16.23;7.10;;;11.80;99.90;;;;;;4942279;28;89455;-34
2022/05/16 01:32:18;;;;;;;6.28;5.63;;;11.80;99.90;;;;;;4942061;28;90081;-39
2022/05/16 01:34:44;;;;;;;8.02;6.30;;;11.90;99.90;;;;;;4942004;28;88239;-33
2022/05/16 01:37:09;;;;;;;8.35;6.78;;;11.90;99.90;;;;;;4942047;28;90389;-36
2022/05/16 01:39:35;;;;;;;7.32;6.05;;;11.80;99.90;;;;;;4941789;28;89589;-35
2022/05/16 01:42:01;;;;;;;11.77;6.85;;;11.90;99.90;;;;;;4942446;28;89755;-36
2022/05/16 01:44:26;;;;;;;13.85;6.28;;;11.90;99.90;;;;;;4941479;28;89354;-39
2022/05/16 01:46:52;;;;;;;8.02;6.70;;;11.90;99.90;;;;;;4942000;28;91518;-35
2022/05/16 01:49:18;;;;;;;9.02;7.00;;;11.90;99.90;;;;;;4941151;28;89313;-34
2022/05/16 01:51:43;;;;;;;8.63;5.43;;;11.90;99.90;;;;;;4942153;28;92689;-38
2022/05/16 01:54:09;;;;;;;8.93;6.60;;;11.90;99.90;;;;;;4941775;28;88339;-36
2022/05/16 01:56:36;;;;;;;9.50;6.47;;;11.80;99.90;;;;;;4941890;28;91478;-34
2022/05/16 01:59:04;;;;;;;10.55;6.45;;;11.80;99.90;;;;;;4941819;28;91684;-37
2022/05/16 02:01:30;;;;;;;8.40;5.38;;;11.80;99.90;;;;;;4942093;28;90082;-33
2022/05/16 02:03:56;;;;;;;15.35;7.00;;;11.80;99.90;;;;;;4941782;28;89714;-34
2022/05/16 02:06:21;;;;;;;8.18;5.93;;;11.80;99.90;;;;;;4942081;28;90519;-33
2022/05/16 02:08:48;;;;;;;9.20;5.88;;;11.80;99.90;;;;;;4940546;28;91119;-32
2022/05/16 02:11:14;;;;;;;7.05;5.47;;;11.70;99.90;;;;;;4941609;28;90416;-36
2022/05/16 02:13:42;;;;;;;9.05;5.68;;;11.70;99.90;;;;;;4941322;28;89396;-37
2022/05/16 02:16:09;;;;;;;9.23;6.20;;;11.70;99.90;;;;;;4941384;28;90276;-34
2022/05/16 02:18:35;;;;;;;8.10;6.13;;;11.70;99.90;;;;;;4941276;28;90500;-38
2022/05/16 02:26:30;;;;;;;9.05;6.10;;;11.60;99.90;;;;;;4941664;28;89198;-36
2022/05/16 02:28:55;;;;;;;9.45;5.10;;;11.50;99.90;;;;;;4940941;28;89848;-36
2022/05/16 02:31:21;;;;;;;9.65;5.93;;;11.60;99.90;;;;;;4941647;28;89267;-35
2022/05/16 02:33:48;;;;;;;7.00;5.65;;;11.60;99.90;;;;;;4940342;28;89295;-35
2022/05/16 02:36:14;;;;;;;7.95;5.78;;;11.70;99.90;;;;;;4940422;28;90008;-36
2022/05/16 02:38:40;;;;;;;11.07;7.20;;;11.70;99.90;;;;;;4940906;28;89723;-33
2022/05/16 02:41:06;;;;;;;5.68;5.13;;;11.70;99.90;;;;;;4932205;28;90995;-33
2022/05/16 02:43:32;;;;;;;10.18;7.13;;;11.80;99.90;;;;;;4921709;28;87816;-36
2022/05/16 02:45:58;;;;;;;13.70;6.45;;;11.90;99.90;;;;;;4920908;28;89245;-34
2022/05/16 02:48:24;;;;;;;10.77;7.05;;;11.90;99.90;;;;;;4920779;28;89133;-37
2022/05/16 02:50:49;;;;;;;7.32;5.00;;;11.90;99.90;;;;;;4921560;28;90529;-38
2022/05/16 02:53:16;;;;;;;16.63;6.22;;;11.90;99.90;;;;;;4921407;28;89280;-35
2022/05/16 02:55:42;;;;;;;11.23;5.45;;;11.90;99.90;;;;;;4920826;28;90316;-34
2022/05/16 02:58:09;;;;;;;7.97;5.13;;;12.00;99.90;;;;;;4920612;28;90884;-34
2022/05/16 03:00:35;;;;;;;7.55;5.53;;;11.90;99.90;;;;;;4920991;28;90441;-38
2022/05/16 03:03:01;;;;;;;12.95;5.22;;;11.90;99.90;;;;;;4920972;28;89391;-33
2022/05/16 03:05:26;;;;;;;7.43;5.13;;;11.90;99.90;;;;;;4921696;28;90326;-35
2022/05/16 03:07:52;;;;;;;6.93;4.97;;;11.90;99.90;;;;;;4920561;28;89460;-35
2022/05/16 03:10:18;;;;;;;10.13;5.75;;;11.90;99.90;;;;;;4921003;28;89536;-36
2022/05/16 03:12:45;;;;;;;6.40;5.28;;;11.90;99.90;;;;;;4921142;28;89176;-35
2022/05/16 03:15:12;;;;;;;8.13;5.68;;;11.90;99.90;;;;;;4921161;28;90324;-38
2022/05/16 03:17:38;;;;;;;5.40;4.30;;;11.90;99.90;;;;;;4921075;28;90535;-36
2022/05/16 03:20:06;;;;;;;12.68;5.70;;;11.90;99.90;;;;;;4920929;28;88628;-33
2022/05/16 03:22:32;;;;;;;7.45;5.32;;;11.80;99.90;;;;;;4920090;28;89878;-36
2022/05/16 03:24:57;;;;;;;7.45;6.20;;;11.80;99.90;;;;;;4920616;28;90246;-37
2022/05/16 03:27:23;;;;;;;7.13;5.30;;;11.80;99.90;;;;;;4921320;28;91039;-34
2022/05/16 03:29:49;;;;;;;11.55;4.75;;;11.80;99.90;;;;;;4920963;28;89437;-34
2022/05/16 03:32:15;;;;;;;7.05;5.28;;;11.80;99.90;;;;;;4921564;28;90056;-34
2022/05/16 03:34:40;;;;;;;6.40;5.05;;;11.80;99.90;;;;;;4920579;28;89218;-34
2022/05/16 03:37:06;;;;;;;7.43;5.18;;;11.80;99.90;;;;;;4921112;28;88759;-35
2022/05/16 03:42:15;;;;;;;7.40;5.03;;;11.80;99.90;;;;;;4921474;28;89032;-34
2022/05/16 03:44:41;;;;;;;12.02;4.93;;;11.90;99.90;;;;;;4919170;28;90733;-34
2022/05/16 03:47:06;;;;;;;10.32;4.88;;;11.90;99.90;;;;;;4919912;28;93306;-35
2022/05/16 03:49:32;;;;;;;10.18;5.15;;;11.80;99.90;;;;;;4920826;28;89953;-37
2022/05/16 03:51:59;;;;;;;7.03;5.38;;;11.80;99.90;;;;;;4920233;28;88807;-37
2022/05/16 03:54:25;;;;;;;5.60;4.97;;;11.80;99.90;;;;;;4920487;28;90264;-36
2022/05/16 03:56:50;;;;;;;7.70;4.63;;;11.80;99.90;;;;;;4920643;28;91733;-35
2022/05/16 03:59:16;;;;;;;5.68;5.07;;;11.80;99.90;;;;;;4920341;28;89556;-35
2022/05/16 04:01:44;;;;;;;7.18;4.93;;;11.80;99.90;;;;;;4903488;28;88695;-36
2022/05/16 04:04:10;;;;;;;8.93;5.50;;;11.80;99.90;;;;;;4920900;28;89423;-35
2022/05/16 04:06:37;;;;;;;7.30;5.22;;;11.70;99.90;;;;;;4919684;28;89691;-34
2022/05/16 04:09:03;;;;;;;11.52;5.88;;;11.60;99.90;;;;;;4920518;28;88361;-33
2022/05/16 04:11:29;;;;;;;6.53;5.22;;;11.60;99.90;;;;;;4920461;28;89659;-34
2022/05/16 04:13:55;;;;;;;6.85;5.45;;;11.60;99.90;;;;;;4920011;28;90129;-35
2022/05/16 04:16:21;;;;;;;8.07;5.40;;;11.70;99.90;;;;;;4920471;28;89727;-34
2022/05/16 04:18:47;;;;;;;5.72;4.85;;;11.80;99.90;;;;;;4919900;28;89440;-36
2022/05/16 04:21:13;;;;;;;7.35;5.43;;;11.90;99.90;;;;;;4920609;28;89922;-39
2022/05/16 04:23:40;;;;;;;11.32;5.38;;;12.10;99.90;;;;;;4920072;28;90251;-34
2022/05/16 04:26:06;;;;;;;9.80;4.07;;;12.20;99.90;;;;;;4920109;28;89687;-37
2022/05/16 04:28:31;;;;;;;10.63;4.97;;;12.30;99.90;;;;;;4920241;28;88469;-32
2022/05/16 04:30:57;;;;;;;6.25;4.85;;;12.50;99.90;;;;;;4920475;28;87947;-35
2022/05/16 04:33:23;;;;;;;7.88;5.47;;;12.80;99.90;;;;;;4920397;28;91116;-33
2022/05/16 04:35:48;;;;;;;13.50;5.35;;;13.20;99.90;;;;;;4919868;28;90509;-35
2022/05/16 04:38:14;;;;;;;9.90;5.50;;;12.70;99.90;;;;;;4918967;28;90508;-38
2022/05/16 04:42:40;;;;;;;7.05;5.13;;;12.60;99.90;;;;;;4920251;28;89234;-36
2022/05/16 04:43:25;;;;;;;13.07;5.28;;;12.50;99.90;;;;;;4919754;28;90600;-34
2022/05/16 04:45:51;;;;;;;6.05;5.05;;;12.40;99.90;;;;;;4919454;28;89352;-35
2022/05/16 04:48:16;;;;;;;8.43;4.15;;;12.50;99.90;;;;;;4919918;28;89329;-33
2022/05/16 04:50:42;;;;;;;9.73;5.20;;;12.50;99.90;;;;;;4919192;28;89963;-35
2022/05/16 04:53:07;;;;;;;5.85;5.25;;;12.50;99.90;;;;;;4920504;28;89701;-34
2022/05/16 04:55:33;;;;;;;5.65;4.85;;;12.50;99.90;;;;;;4919430;28;89622;-34
2022/05/16 04:57:59;;;;;;;6.20;4.80;;;12.50;99.90;;;;;;4923327;28;89238;-33
2022/05/16 05:00:26;;;;;;;8.70;5.25;;;12.50;99.90;;;;;;4905194;28;90200;-38
2022/05/16 05:02:51;;;;;;;7.57;4.72;;;12.50;99.90;;;;;;4922532;28;90622;-33
2022/05/16 05:05:18;;;;;;;13.68;5.03;;;12.70;99.90;;;;;;4922877;28;89389;-35
2022/05/16 05:07:45;;;;;;;8.68;4.68;;;12.70;99.90;;;;;;4922733;28;89611;-34
2022/05/16 05:15:43;;;;;;;9.10;5.03;;;13.00;99.90;;;;;;4942145;28;89711;-38
2022/05/16 05:18:09;;;;;;;5.88;4.57;;;13.00;99.90;;;;;;4941998;28;89562;-33
2022/05/16 05:20:35;;;;;;;9.43;5.90;;;13.00;99.90;;;;;;4942762;28;88017;-36
2022/05/16 05:23:03;;;;;;;8.52;4.93;;;13.10;99.90;;;;;;4942150;28;90183;-34
2022/05/16 05:25:29;;;;;;;8.63;4.20;;;13.20;99.90;;;;;;4941041;28;90606;-35
2022/05/16 05:27:55;;;;;;;8.13;5.05;;;13.30;99.90;;;;;;4941666;28;90482;-34
2022/05/16 05:30:24;;;;;;;6.15;4.97;;;13.40;99.90;;;;;;4942577;28;88253;-35
2022/05/16 05:32:50;;;;;;;11.73;5.50;;;13.50;99.90;;;;;;4941649;28;90322;-36
2022/05/16 05:35:17;;;;;;;7.88;6.00;;;13.70;99.90;;;;;;4941781;28;90040;-35
2022/05/16 05:37:42;;;;;;;20.15;6.18;;;13.90;99.90;;;;;;4941715;28;89971;-38
2022/05/16 05:40:09;;;;;;;7.57;5.38;;;13.80;99.90;;;;;;4941839;28;88875;-36
2022/05/16 05:42:35;;;;;;;5.47;4.97;;;13.70;99.90;;;;;;4941290;28;90245;-37
2022/05/16 05:45:02;;;;;;;8.95;4.78;;;13.80;99.90;;;;;;4941759;28;89703;-32
2022/05/16 05:47:27;;;;;;;8.30;4.63;;;13.70;99.90;;;;;;4941919;28;89303;-34
2022/05/16 05:49:54;;;;;;;8.60;5.47;;;13.60;99.90;;;;;;4940885;28;90487;-37
2022/05/16 05:52:20;;;;;;;5.55;4.80;;;13.80;99.90;;;;;;4941985;28;90046;-33
2022/05/16 05:54:46;;;;;;;10.18;4.63;;;13.90;99.90;;;;;;4940883;28;89943;-36
2022/05/16 05:57:13;;;;;;;9.70;4.85;;;14.20;99.90;;;;;;4942158;28;89269;-34
2022/05/16 05:59:39;;;;;;;7.03;5.03;;;14.60;99.90;;;;;;4941149;28;88967;-35
2022/05/16 06:02:08;;;;;;;9.93;5.38;;;14.80;99.90;;;;;;4939576;28;97172;-33
2022/05/16 06:04:33;;;;;;;9.88;5.25;;;14.90;99.90;;;;;;4938800;28;88599;-37
2022/05/16 06:07:00;;;;;;;9.65;5.20;;;14.80;99.90;;;;;;4939391;28;89540;-36
2022/05/16 06:09:26;;;;;;;9.00;5.75;;;14.90;99.90;;;;;;4939070;28;89672;-37
2022/05/16 06:11:52;;;;;;;10.68;5.35;;;14.90;99.90;;;;;;4939094;28;90292;-33
2022/05/16 06:14:18;;;;;;;6.13;4.78;;;14.80;99.90;;;;;;4939336;28;90653;-36
2022/05/16 06:16:43;;;;;;;7.85;4.60;;;14.80;99.90;;;;;;4938416;28;90518;-34
2022/05/16 06:19:09;;;;;;;7.47;5.75;;;14.80;99.90;;;;;;4939632;28;88773;-35
2022/05/16 06:21:36;;;;;;;5.88;5.28;;;14.80;99.90;;;;;;4939212;28;90424;-36
2022/05/16 06:24:01;;;;;;;6.43;5.10;;;14.80;99.90;;;;;;4939790;28;89973;-35
2022/05/16 06:26:28;;;;;;;7.20;5.88;;;15.10;99.90;;;;;;4939753;28;88599;-33
2022/05/16 06:28:55;;;;;;;12.43;5.63;;;15.40;99.90;;;;;;4938860;28;88781;-36
2022/05/16 06:31:20;;;;;;;12.73;4.68;;;15.80;99.90;;;;;;4939476;28;90364;-36
2022/05/16 06:33:47;;;;;;;9.82;6.22;;;16.00;99.90;;;;;;4939101;28;89951;-36
2022/05/16 06:36:13;;;;;;;7.10;5.28;;;15.90;99.90;;;;;;4938858;28;90033;-32
2022/05/16 06:38:39;;;;;;;7.10;4.75;;;16.30;99.90;;;;;;4938769;28;90504;-33
2022/05/16 06:41:05;;;;;;;11.30;5.05;;;16.50;99.90;;;;;;4938968;28;90394;-33
2022/05/16 06:43:32;;;;;;;12.02;5.53;;;16.70;99.90;;;;;;4938184;28;90216;-37
2022/05/16 06:45:58;;;;;;;6.65;4.68;;;17.10;99.90;;;;;;4938937;28;90023;-34
2022/05/16 06:48:24;;;;;;;5.95;5.32;;;17.30;99.90;;;;;;4939328;28;88229;-35
2022/05/16 06:50:51;;;;;;;6.13;4.70;;;17.60;99.90;;;;;;4938810;28;90494;-38
2022/05/16 06:53:28;;;;;;;15.90;4.85;;;17.80;99.90;;;;;;4938901;28;89193;-38
2022/05/16 06:55:54;;;;;;;7.73;5.10;;;18.20;99.90;;;;;;4938815;28;89520;-35
2022/05/16 06:58:20;;;;;;;13.88;5.97;;;18.30;99.90;;;;;;4938354;28;89869;-34
2022/05/16 07:00:46;;;;;;;9.43;5.43;;;18.10;99.90;;;;;;4921104;28;90367;-38
2022/05/16 07:03:12;;;;;;;9.85;5.72;;;18.00;99.90;;;;;;4938387;28;89949;-37
2022/05/16 07:05:38;;;;;;;7.75;4.93;;;18.10;99.90;;;;;;4938394;28;91118;-34
2022/05/16 07:08:04;;;;;;;14.52;5.18;;;18.40;99.90;;;;;;4941073;28;88523;-35
2022/05/16 07:10:31;;;;;;;5.65;4.30;;;18.50;99.90;;;;;;4923668;28;90147;-36
2022/05/16 07:12:57;;;;;;;10.82;3.88;;;18.60;99.90;;;;;;4942741;28;89776;-37
2022/05/16 07:15:23;;;;;;;8.35;4.40;;;18.70;99.90;;;;;;4942245;28;89595;-35
2022/05/16 07:17:48;;;;;;;6.85;5.28;;;19.00;99.90;;;;;;4941323;28;89222;-36
2022/05/16 07:20:14;;;;;;;10.15;4.85;;;19.00;99.90;;;;;;4940528;28;90423;-39
2022/05/16 07:22:42;;;;;;;6.25;3.90;;;19.40;99.90;;;;;;4940986;28;89122;-35
2022/05/16 07:25:08;;;;;;;8.68;4.63;;;19.40;99.90;;;;;;4942460;28;89830;-37
2022/05/16 07:30:19;;;;;;;10.35;4.50;;;20.00;99.90;;;;;;4927391;28;90411;-35
2022/05/16 07:32:46;;;;;;;5.03;3.67;;;20.00;94.90;;;;;;4958489;28;89717;-35
2022/05/16 07:35:20;;;;;;;16.08;4.30;;;19.80;96.60;;;;;;4951846;28;89748;-39
2022/05/16 07:37:45;;;;;;;7.00;4.97;;;20.10;95.40;;;;;;4938330;28;87522;-36
2022/05/16 07:40:12;;;;;;;9.73;4.25;;;20.20;94.00;;;;;;4938452;28;89892;-38
2022/05/16 07:42:39;;;;;;;11.93;3.78;;;20.00;97.50;;;;;;4937791;28;89986;-36
2022/05/16 07:45:07;;;;;;;9.18;4.38;;;20.30;97.90;;;;;;4939260;28;89647;-37
2022/05/16 07:47:33;;;;;;;4.97;4.25;;;20.40;93.50;;;;;;4938381;28;89168;-38
2022/05/16 07:50:02;;;;;;;8.63;4.65;;;20.80;87.90;;;;;;4938519;28;90278;-36
2022/05/16 07:52:29;;;;;;;5.00;4.15;;;20.70;88.00;;;;;;4937697;28;92498;-41
2022/05/16 07:54:54;;;;;;;5.55;3.28;;;20.70;87.40;;;;;;4936982;28;90638;-38
2022/05/16 07:57:20;;;;;;;7.88;4.47;;;20.60;93.70;;;;;;4938464;28;89159;-37
2022/05/16 07:59:46;;;;;;;7.07;3.67;;;20.70;88.90;;;;;;4937371;28;90814;-38
2022/05/16 08:02:13;;;;;;;8.73;4.05;;;20.60;88.60;;;;;;4938860;28;90105;-36
2022/05/16 08:04:39;;;;;;;4.90;4.03;;;20.60;86.80;;;;;;4938441;28;89658;-37
2022/05/16 08:07:06;;;;;;;7.82;4.35;;;21.00;89.70;;;;;;4937915;28;88159;-35
2022/05/16 08:12:29;;;;;;;7.40;4.88;;;21.20;74.50;;;;;;4938182;28;89958;-35
2022/05/16 08:14:55;;;;;;;5.90;4.47;;;21.50;82.10;;;;;;4937814;28;89445;-34
2022/05/16 08:17:22;;;;;;;9.32;5.05;;;21.80;77.40;;;;;;4937243;28;89516;-35
2022/05/16 08:19:48;;;;;;;7.10;4.88;;;21.70;73.30;;;;;;4937948;28;90872;-37
2022/05/16 08:22:15;;;;;;;5.47;4.10;;;21.80;75.80;;;;;;4937772;28;90020;-37
2022/05/16 08:24:40;;;;;;;9.63;4.43;;;22.00;74.20;;;;;;4937720;28;89371;-37
2022/05/16 08:27:07;;;;;;;12.60;4.45;;;22.10;69.20;;;;;;4937940;28;88525;-37
2022/05/16 08:29:32;;;;;;;7.65;4.13;;;22.10;76.80;;;;;;4937237;28;90466;-36
2022/05/16 08:31:58;;;;;;;8.00;3.78;;;21.90;71.70;;;;;;4939165;28;89512;-38
2022/05/16 08:34:25;;;;;;;6.63;4.72;;;21.90;73.20;;;;;;4941166;28;89718;-35
2022/05/16 08:39:55;;;;;;;6.57;3.78;;;22.50;72.80;;;;;;4940785;28;90627;-35
2022/05/16 08:42:37;;;;;;;6.03;3.92;;;22.60;70.60;;;;;;4940667;28;91405;-34
2022/05/16 08:45:17;;;;;;;6.53;3.78;;;22.70;69.70;;;;;;4939803;28;90476;-36
2022/05/16 08:48:03;;;;;;;6.15;4.50;;;22.50;66.10;;;;;;4940790;28;90820;-35
2022/05/16 08:50:38;;;;;;;7.93;3.83;;;22.40;66.10;;;;;;4941193;28;89861;-37
2022/05/16 08:53:12;;;;;;;11.45;3.95;;;22.60;67.80;;;;;;4940548;28;89241;-37
2022/05/16 08:55:42;;;;;;;11.95;3.95;;;22.80;69.00;;;;;;4940504;28;89949;-37
2022/05/16 08:58:25;;;;;;;4.95;3.38;;;23.10;66.30;;;;;;4941445;28;89386;-37
2022/05/16 09:01:02;;;;;;;11.25;3.92;;;23.30;63.50;;;;;;4940565;28;90753;-37
2022/05/16 09:03:43;;;;;;;9.45;3.63;;;23.40;64.90;;;;;;4940422;28;90214;-41
2022/05/16 09:06:16;;;;;;;5.05;3.22;;;23.50;63.10;;;;;;4940654;28;89696;-35
2022/05/16 09:09:14;;;;;;;6.55;4.15;;;23.90;64.10;;;;;;4940646;28;90052;-38
2022/05/16 09:12:01;;;;;;;7.65;4.55;;;24.10;61.30;;;;;;4940203;28;89315;-36
2022/05/16 09:14:52;;;;;;;5.70;3.35;;;24.10;60.40;;;;;;4948334;28;88909;-34
2022/05/16 09:17:48;;;;;;;6.60;3.33;;;24.30;60.60;;;;;;4960530;28;89967;-36
2022/05/16 09:20:28;;;;;;;6.38;4.20;;;24.50;59.60;;;;;;4960847;28;89685;-38
2022/05/16 09:22:59;;;;;;;13.15;4.35;;;24.60;59.40;;;;;;4959679;28;89157;-38
2022/05/16 09:25:32;;;;;;;9.93;4.32;;;25.20;60.60;;;;;;4959618;28;89805;-40
2022/05/16 09:30:48;;;;;;;10.43;3.72;;;25.20;57.30;;;;;;4944674;28;89158;-38
2022/05/16 09:33:27;;;;;;;14.85;4.18;;;25.20;56.10;;;;;;4957635;28;90676;-37
2022/05/16 09:36:06;;;;;;;8.63;3.67;;;25.30;56.80;;;;;;4954262;28;89818;-36
2022/05/16 09:38:32;;;;;;;5.90;4.72;;;25.10;56.20;;;;;;4940140;28;90368;-36
2022/05/16 09:41:01;;;;;;;4.75;3.35;;;25.10;55.40;;;;;;4939798;28;89115;-35
2022/05/16 09:44:03;;;;;;;3.40;2.80;;;25.30;56.40;;;;;;4939473;28;90831;-34
2022/05/16 09:46:36;;;;;;;5.05;4.00;;;25.10;56.00;;;;;;4908195;28;89823;-36
2022/05/16 09:49:06;;;;;;;5.68;3.78;;;24.90;56.00;;;;;;4939517;28;89629;-38
2022/05/16 09:51:44;;;;;;;6.22;3.85;;;24.60;57.80;;;;;;4940566;28;87859;-37
2022/05/16 09:54:22;;;;;;;5.10;3.88;;;24.30;58.10;;;;;;4939585;28;91682;-36
2022/05/16 09:57:03;;;;;;;6.60;4.68;;;24.30;57.50;;;;;;4939230;28;89530;-34
2022/05/16 09:59:40;;;;;;;5.05;3.38;;;24.20;57.90;;;;;;4940053;28;89680;-34
2022/05/16 10:02:26;;;;;;;26.98;6.22;;;24.70;59.20;;;;;;4939096;28;88863;-36
2022/05/16 10:04:58;;;;;;;8.80;4.22;;;24.90;58.10;;;;;;4939478;28;90235;-39
2022/05/16 10:07:44;;;;;;;4.68;4.10;;;24.70;57.50;;;;;;4939543;28;90188;-35
2022/05/16 10:10:24;;;;;;;11.20;3.63;;;24.60;57.20;;;;;;4939599;28;89628;-38
2022/05/16 10:12:53;;;;;;;4.65;3.55;;;24.60;59.00;;;;;;4939123;28;89590;-37
2022/05/16 10:15:20;;;;;;;8.77;3.60;;;24.70;59.80;;;;;;4939188;28;90404;-39
2022/05/16 10:17:47;;;;;;;6.35;3.67;;;24.60;59.20;;;;;;4939214;28;89649;-35
2022/05/16 10:20:17;;;;;;;5.25;2.97;;;24.60;58.50;;;;;;4940231;28;89253;-36
2022/05/16 10:22:45;;;;;;;6.05;4.13;;;24.40;58.60;;;;;;4939351;28;89410;-35
2022/05/16 10:25:18;;;;;;;8.07;4.20;;;24.50;58.70;;;;;;4938217;28;90938;-40
2022/05/16 10:27:48;;;;;;;9.85;3.85;;;24.80;58.70;;;;;;4938672;28;91799;-36
2022/05/16 10:30:21;;;;;;;10.90;4.47;;;25.10;58.30;;;;;;4939319;28;90946;-38
2022/05/16 10:35:55;;;;;;;9.45;5.55;;;25.60;58.80;;;;;;4939137;28;90186;-36
2022/05/16 10:38:36;;;;;;;7.00;4.40;;;26.20;56.80;;;;;;4939097;28;89745;-36
2022/05/16 10:41:05;;;;;;;7.45;4.30;;;26.30;60.30;;;;;;4938475;28;90684;-35
2022/05/16 10:43:54;;;;;;;5.70;4.57;;;26.20;56.20;;;;;;4938584;28;88556;-36
2022/05/16 10:46:30;;;;;;;7.32;3.92;;;25.80;54.80;;;;;;4939274;28;91200;-35
2022/05/16 10:49:01;;;;;;;5.40;4.07;;;25.80;56.70;;;;;;4938856;28;89911;-36
2022/05/16 10:51:42;;;;;;;5.85;4.32;;;26.00;56.60;;;;;;4939033;28;89746;-38
2022/05/16 10:54:16;;;;;;;8.23;3.92;;;25.80;54.20;;;;;;4938013;28;90641;-40
2022/05/16 10:56:48;;;;;;;6.85;3.97;;;25.70;55.20;;;;;;4939293;28;90307;-39
2022/05/16 10:59:44;;;;;;;4.88;3.70;;;25.90;54.10;;;;;;4938367;28;88876;-38
2022/05/16 11:02:41;;;;;;;5.00;4.20;;;26.00;55.70;;;;;;4938718;28;89573;-37
2022/05/16 11:05:16;;;;;;;7.80;4.30;;;25.90;55.80;;;;;;4938438;28;88999;-40
2022/05/16 11:08:03;;;;;;;4.45;4.05;;;25.90;54.40;;;;;;4939157;28;90264;-36
2022/05/16 11:10:36;;;;;;;46.53;8.77;;;25.80;54.50;;;;;;4938619;28;90165;-36
2022/05/16 11:13:32;;;;;;;16.83;3.83;;;25.80;55.10;;;;;;4938948;28;88270;-35
2022/05/16 11:16:08;;;;;;;10.10;5.30;;;25.80;56.00;;;;;;4936906;28;89624;-38
2022/05/16 11:18:43;;;;;;;12.07;3.93;;;25.80;55.70;;;;;;4938417;28;90289;-39
2022/05/16 11:21:12;;;;;;;9.05;4.50;;;26.00;56.90;;;;;;4937986;28;90482;-36
2022/05/16 11:23:43;;;;;;;7.97;4.45;;;25.90;55.80;;;;;;4938493;28;90583;-36
2022/05/16 11:26:21;;;;;;;16.65;5.50;;;25.70;55.60;;;;;;4938695;28;89226;-36
2022/05/16 11:29:17;;;;;;;;;;;25.60;56.20;;;;;;4939107;28;90367;-38
2022/05/16 11:32:09;;;;;;;6.28;4.72;;;25.60;56.30;;;;;;4942520;28;90271;-38
2022/05/16 11:34:43;;;;;;;15.65;4.82;;;25.60;56.20;;;;;;4939460;28;89549;-40
2022/05/16 11:37:20;;;;;;;12.50;4.45;;;25.20;56.70;;;;;;4941703;28;88775;-36
2022/05/16 11:40:14;;;;;;;10.63;5.53;;;25.30;56.10;;;;;;4937400;28;89288;-40
2022/05/16 11:43:02;;;;;;;15.35;5.00;;;25.10;57.40;;;;;;4938550;28;90178;-35
2022/05/16 11:45:31;;;;;;;10.05;3.80;;;25.10;58.10;;;;;;4938146;28;90224;-35
2022/05/16 11:48:23;;;;;;;11.93;5.68;;;25.00;59.20;;;;;;4938586;28;88799;-35
2022/05/16 11:51:12;;;;;;;6.35;4.72;;;24.90;59.20;;;;;;4937654;28;90318;-37
2022/05/16 11:53:44;;;;;;;5.03;4.45;;;24.90;59.10;;;;;;4937301;28;89559;-40
2022/05/16 12:02:15;;;;;;;5.60;4.63;;;24.50;63.20;;;;;;4937346;28;91191;-38
2022/05/16 12:04:50;;;;;;;11.13;5.47;;;24.40;64.40;;;;;;4937837;28;89827;-36
2022/05/16 12:07:23;;;;;;;7.68;4.50;;;24.30;67.10;;;;;;4936764;28;89764;-36
2022/05/16 12:09:54;;;;;;;9.90;4.72;;;24.30;68.90;;;;;;4938238;28;88628;-38
2022/05/16 12:12:44;;;;;;;9.52;5.75;;;24.20;70.50;;;;;;4937859;28;90745;-38
2022/05/16 12:15:24;;;;;;;43.90;9.10;;;24.20;77.10;;;;;;4936835;28;91898;-34
2022/05/16 12:18:01;;;;;;;6.65;4.82;;;24.10;79.10;;;;;;4939222;28;90422;-36
2022/05/16 12:20:37;;;;;;;9.40;5.67;;;24.20;81.80;;;;;;4940992;28;88508;-38
2022/05/16 12:23:03;;;;;;;7.07;5.30;;;24.10;84.40;;;;;;4959781;28;90466;-36
2022/05/16 12:25:32;;;;;;;10.10;4.78;;;24.20;82.20;;;;;;4957917;28;91631;-35
2022/05/16 12:28:13;;;;;;;5.80;4.85;;;24.10;84.80;;;;;;4958085;28;90266;-37
2022/05/16 12:30:41;;;;;;;9.75;5.32;;;24.10;87.70;;;;;;4959168;28;88440;-36
2022/05/16 12:33:42;;;;;;;18.40;6.70;;;24.00;83.60;;;;;;4959487;28;91685;-37
2022/05/16 12:36:25;;;;;;;5.85;5.22;;;24.00;83.00;;;;;;4953830;28;90263;-35
2022/05/16 12:38:58;;;;;;;10.65;5.15;;;24.10;80.10;;;;;;4958429;28;89086;-36
2022/05/16 12:41:44;;;;;;;7.78;5.15;;;24.10;81.40;;;;;;4959274;28;90338;-34
2022/05/16 12:44:41;;;;;;;10.52;5.07;;;24.20;88.40;;;;;;4991779;22;90745;-36
2022/05/16 12:47:46;;;;;;;10.70;5.05;;;24.40;80.10;;;;;;4957971;28;89839;-37
2022/05/16 12:50:24;;;;;;;7.30;5.22;;;24.60;74.90;;;;;;4958558;28;89260;-36
2022/05/16 12:53:01;;;;;;;8.88;5.28;;;24.70;72.50;;;;;;4959152;28;90252;-34
2022/05/16 12:55:31;;;;;;;;;;;24.80;72.20;;;;;;4959998;28;90688;-35
2022/05/16 12:58:14;;;;;;;4.55;4.05;;;24.80;72.80;;;;;;4960205;28;89696;-36
2022/05/16 13:00:52;;;;;;;7.80;3.50;;;24.90;69.70;;;;;;4958272;28;90288;-36
2022/05/16 13:03:38;;;;;;;5.05;4.57;;;25.00;71.20;;;;;;4958711;28;90098;-39
2022/05/16 13:06:31;;;;;;;6.28;4.35;;;25.00;69.00;;;;;;4958257;28;90690;-34
2022/05/16 13:09:14;;;;;;;6.97;4.28;;;24.90;70.00;;;;;;4958200;28;90405;-35
2022/05/16 13:11:47;;;;;;;10.95;5.30;;;24.90;72.80;;;;;;4958706;28;90849;-36
2022/05/16 13:14:23;;;;;;;14.75;4.88;;;24.80;74.50;;;;;;4958706;28;89149;-37
2022/05/16 13:17:00;;;;;;;5.20;4.78;;;24.60;76.10;;;;;;4959088;28;89314;-38
2022/05/16 13:19:32;;;;;;;8.43;4.87;;;24.60;80.20;;;;;;4961560;28;89685;-35
2022/05/16 13:22:06;;;;;;;13.15;4.45;;;24.50;82.40;;;;;;4962325;28;89389;-38
2022/05/16 13:24:33;;;;;;;12.52;4.25;;;24.40;84.70;;;;;;4961281;28;89801;-37
2022/05/16 13:29:48;;;;;;;4.90;3.73;;;24.50;88.80;;;;;;4961535;28;89264;-35
2022/05/16 13:32:17;;;;;;;5.25;4.30;;;24.50;89.40;;;;;;4962401;28;89968;-37
2022/05/16 13:34:53;;;;;;;8.65;4.55;;;24.40;93.20;;;;;;4961683;28;89628;-38
2022/05/16 13:37:32;;;;;;;11.33;3.77;;;24.30;91.80;;;;;;4960989;28;90734;-38
2022/05/16 13:40:06;;;;;;;4.82;4.05;;;24.20;91.00;;;;;;4960648;28;90568;-35
2022/05/16 13:42:34;;;;;;;4.57;3.60;;;24.20;91.90;;;;;;4962016;28;89473;-34
2022/05/16 13:45:00;;;;;;;;;;;24.10;93.20;;;;;;4962409;28;89338;-39